sensor_id;sensor_type;location;lat;lon;timestamp;temperature;humidity
8945;DHT22;4507;40.232;29.132;2023-08-12T00:01:04;20.80;93.50
8945;DHT22;4507;40.232;29.132;2023-08-12T00:03:35;20.80;93.50
8945;DHT22;4507;40.232;29.132;2023-08-12T00:06:04;20.80;93.50
8945;DHT22;4507;40.232;29.132;2023-08-12T00:08:33;20.80;93.60
8945;DHT22;4507;40.232;29.132;2023-08-12T00:11:02;20.80;93.60
8945;DHT22;4507;40.232;29.132;2023-08-12T00:13:31;20.80;93.60
8945;DHT22;4507;40.232;29.132;2023-08-12T00:16:03;20.80;93.60
8945;DHT22;4507;40.232;29.132;2023-08-12T00:18:33;20.80;93.50
8945;DHT22;4507;40.232;29.132;2023-08-12T00:21:08;20.80;93.50
8945;DHT22;4507;40.232;29.132;2023-08-12T00:23:55;20.80;93.50
8945;DHT22;4507;40.232;29.132;2023-08-12T00:26:28;20.80;93.30
8945;DHT22;4507;40.232;29.132;2023-08-12T00:28:57;20.80;93.30
8945;DHT22;4507;40.232;29.132;2023-08-12T00:31:45;21.10;93.40
8945;DHT22;4507;40.232;29.132;2023-08-12T00:34:17;20.90;93.20
8945;DHT22;4507;40.232;29.132;2023-08-12T00:36:46;20.90;93.10
8945;DHT22;4507;40.232;29.132;2023-08-12T00:39:15;21.00;93.10
8945;DHT22;4507;40.232;29.132;2023-08-12T00:41:46;21.00;93.00
8945;DHT22;4507;40.232;29.132;2023-08-12T00:44:21;21.00;92.90
8945;DHT22;4507;40.232;29.132;2023-08-12T00:46:50;21.00;92.80
8945;DHT22;4507;40.232;29.132;2023-08-12T00:49:28;21.00;92.70
8945;DHT22;4507;40.232;29.132;2023-08-12T00:51:58;21.00;92.70
8945;DHT22;4507;40.232;29.132;2023-08-12T00:54:30;21.00;92.60
8945;DHT22;4507;40.232;29.132;2023-08-12T00:56:59;20.90;92.60
8945;DHT22;4507;40.232;29.132;2023-08-12T00:59:29;20.90;92.70
8945;DHT22;4507;40.232;29.132;2023-08-12T01:02:00;20.90;92.80
8945;DHT22;4507;40.232;29.132;2023-08-12T01:04:33;20.90;92.90
8945;DHT22;4507;40.232;29.132;2023-08-12T01:07:03;20.90;93.00
8945;DHT22;4507;40.232;29.132;2023-08-12T01:09:32;20.90;93.00
8945;DHT22;4507;40.232;29.132;2023-08-12T01:12:06;20.90;93.10
8945;DHT22;4507;40.232;29.132;2023-08-12T01:14:45;20.90;93.10
8945;DHT22;4507;40.232;29.132;2023-08-12T01:17:15;20.90;93.10
8945;DHT22;4507;40.232;29.132;2023-08-12T01:19:47;20.90;93.10
8945;DHT22;4507;40.232;29.132;2023-08-12T01:22:21;21.00;93.10
8945;DHT22;4507;40.232;29.132;2023-08-12T01:24:53;21.00;93.10
8945;DHT22;4507;40.232;29.132;2023-08-12T01:27:22;21.00;93.10
8945;DHT22;4507;40.232;29.132;2023-08-12T01:29:52;21.00;93.10
8945;DHT22;4507;40.232;29.132;2023-08-12T01:32:36;21.10;93.10
8945;DHT22;4507;40.232;29.132;2023-08-12T01:35:25;21.10;93.10
8945;DHT22;4507;40.232;29.132;2023-08-12T01:38:00;21.10;93.00
8945;DHT22;4507;40.232;29.132;2023-08-12T01:47:26;21.10;93.00
8945;DHT22;4507;40.232;29.132;2023-08-12T01:50:14;21.10;93.00
8945;DHT22;4507;40.232;29.132;2023-08-12T01:52:43;21.10;93.00
8945;DHT22;4507;40.232;29.132;2023-08-12T01:55:12;21.10;92.90
8945;DHT22;4507;40.232;29.132;2023-08-12T01:57:41;21.10;93.00
8945;DHT22;4507;40.232;29.132;2023-08-12T02:00:11;21.00;92.80
8945;DHT22;4507;40.232;29.132;2023-08-12T02:02:45;21.00;92.80
8945;DHT22;4507;40.232;29.132;2023-08-12T02:05:15;21.00;92.80
8945;DHT22;4507;40.232;29.132;2023-08-12T02:07:44;21.00;92.90
8945;DHT22;4507;40.232;29.132;2023-08-12T02:10:14;21.00;92.80
8945;DHT22;4507;40.232;29.132;2023-08-12T02:12:43;21.00;92.90
8945;DHT22;4507;40.232;29.132;2023-08-12T02:15:13;21.00;92.80
8945;DHT22;4507;40.232;29.132;2023-08-12T02:17:45;21.00;92.90
8945;DHT22;4507;40.232;29.132;2023-08-12T02:20:14;21.00;93.10
8945;DHT22;4507;40.232;29.132;2023-08-12T02:22:43;21.00;92.90
8945;DHT22;4507;40.232;29.132;2023-08-12T02:25:12;21.10;92.80
8945;DHT22;4507;40.232;29.132;2023-08-12T02:27:43;21.10;92.80
8945;DHT22;4507;40.232;29.132;2023-08-12T02:30:12;21.10;92.80
8945;DHT22;4507;40.232;29.132;2023-08-12T02:32:42;21.10;92.80
8945;DHT22;4507;40.232;29.132;2023-08-12T02:35:32;21.10;92.80
8945;DHT22;4507;40.232;29.132;2023-08-12T02:38:03;21.10;92.90
8945;DHT22;4507;40.232;29.132;2023-08-12T02:40:33;21.10;92.90
8945;DHT22;4507;40.232;29.132;2023-08-12T02:43:02;21.10;93.00
8945;DHT22;4507;40.232;29.132;2023-08-12T02:45:32;21.20;93.30
8945;DHT22;4507;40.232;29.132;2023-08-12T02:48:01;21.20;93.00
8945;DHT22;4507;40.232;29.132;2023-08-12T02:50:32;21.20;93.00
8945;DHT22;4507;40.232;29.132;2023-08-12T02:53:01;21.20;92.90
8945;DHT22;4507;40.232;29.132;2023-08-12T02:55:31;21.20;93.00
8945;DHT22;4507;40.232;29.132;2023-08-12T02:58:01;21.20;92.90
8945;DHT22;4507;40.232;29.132;2023-08-12T03:00:30;21.30;92.90
8945;DHT22;4507;40.232;29.132;2023-08-12T03:03:00;21.20;92.80
8945;DHT22;4507;40.232;29.132;2023-08-12T03:05:30;21.20;92.80
8945;DHT22;4507;40.232;29.132;2023-08-12T03:08:01;21.20;92.80
8945;DHT22;4507;40.232;29.132;2023-08-12T03:10:33;21.20;92.90
8945;DHT22;4507;40.232;29.132;2023-08-12T03:13:03;21.10;92.80
8945;DHT22;4507;40.232;29.132;2023-08-12T03:15:32;21.10;93.00
8945;DHT22;4507;40.232;29.132;2023-08-12T03:18:02;21.10;93.00
8945;DHT22;4507;40.232;29.132;2023-08-12T03:20:31;21.10;93.10
8945;DHT22;4507;40.232;29.132;2023-08-12T03:23:02;21.10;93.10
8945;DHT22;4507;40.232;29.132;2023-08-12T03:25:32;21.20;93.10
8945;DHT22;4507;40.232;29.132;2023-08-12T03:28:02;21.20;93.10
8945;DHT22;4507;40.232;29.132;2023-08-12T03:30:32;21.20;93.10
8945;DHT22;4507;40.232;29.132;2023-08-12T03:33:02;21.20;93.10
8945;DHT22;4507;40.232;29.132;2023-08-12T03:35:33;21.30;93.10
8945;DHT22;4507;40.232;29.132;2023-08-12T03:38:04;21.30;93.00
8945;DHT22;4507;40.232;29.132;2023-08-12T03:40:37;21.30;93.00
8945;DHT22;4507;40.232;29.132;2023-08-12T03:43:09;21.30;93.00
8945;DHT22;4507;40.232;29.132;2023-08-12T03:45:41;21.40;93.00
8945;DHT22;4507;40.232;29.132;2023-08-12T03:48:13;21.40;93.00
8945;DHT22;4507;40.232;29.132;2023-08-12T03:50:43;21.40;93.00
8945;DHT22;4507;40.232;29.132;2023-08-12T03:53:15;21.50;93.00
8945;DHT22;4507;40.232;29.132;2023-08-12T03:55:45;21.50;93.00
8945;DHT22;4507;40.232;29.132;2023-08-12T03:58:16;21.50;92.90
8945;DHT22;4507;40.232;29.132;2023-08-12T04:00:46;21.60;92.90
8945;DHT22;4507;40.232;29.132;2023-08-12T04:03:16;21.60;92.80
8945;DHT22;4507;40.232;29.132;2023-08-12T04:05:49;21.70;92.80
8945;DHT22;4507;40.232;29.132;2023-08-12T04:08:23;21.70;92.80
8945;DHT22;4507;40.232;29.132;2023-08-12T04:10:52;21.80;92.80
8945;DHT22;4507;40.232;29.132;2023-08-12T04:13:22;21.80;92.70
8945;DHT22;4507;40.232;29.132;2023-08-12T04:15:51;21.90;92.70
8945;DHT22;4507;40.232;29.132;2023-08-12T04:18:22;22.00;92.70
8945;DHT22;4507;40.232;29.132;2023-08-12T04:21:09;22.00;92.60
8945;DHT22;4507;40.232;29.132;2023-08-12T04:23:41;22.00;92.60
8945;DHT22;4507;40.232;29.132;2023-08-12T04:26:11;22.10;92.60
8945;DHT22;4507;40.232;29.132;2023-08-12T04:28:41;22.10;92.60
8945;DHT22;4507;40.232;29.132;2023-08-12T04:31:10;22.10;92.60
8945;DHT22;4507;40.232;29.132;2023-08-12T04:33:42;22.20;92.60
8945;DHT22;4507;40.232;29.132;2023-08-12T04:36:11;22.20;92.60
8945;DHT22;4507;40.232;29.132;2023-08-12T04:38:42;22.20;92.50
8945;DHT22;4507;40.232;29.132;2023-08-12T04:41:12;22.30;92.50
8945;DHT22;4507;40.232;29.132;2023-08-12T04:43:41;22.30;92.50
8945;DHT22;4507;40.232;29.132;2023-08-12T04:46:12;22.40;92.50
8945;DHT22;4507;40.232;29.132;2023-08-12T04:48:41;22.40;92.40
8945;DHT22;4507;40.232;29.132;2023-08-12T04:51:10;22.40;92.50
8945;DHT22;4507;40.232;29.132;2023-08-12T04:53:40;22.50;92.40
8945;DHT22;4507;40.232;29.132;2023-08-12T04:56:11;22.60;92.40
8945;DHT22;4507;40.232;29.132;2023-08-12T04:58:40;22.60;92.30
8945;DHT22;4507;40.232;29.132;2023-08-12T05:01:11;22.70;92.30
8945;DHT22;4507;40.232;29.132;2023-08-12T05:03:40;22.70;92.30
8945;DHT22;4507;40.232;29.132;2023-08-12T05:06:10;22.70;92.20
8945;DHT22;4507;40.232;29.132;2023-08-12T05:08:39;22.80;92.20
8945;DHT22;4507;40.232;29.132;2023-08-12T05:11:10;22.80;92.20
8945;DHT22;4507;40.232;29.132;2023-08-12T05:13:39;22.90;92.10
8945;DHT22;4507;40.232;29.132;2023-08-12T05:16:11;22.90;92.10
8945;DHT22;4507;40.232;29.132;2023-08-12T05:18:41;23.00;92.00
8945;DHT22;4507;40.232;29.132;2023-08-12T05:21:11;23.10;92.10
8945;DHT22;4507;40.232;29.132;2023-08-12T05:23:42;23.10;92.10
8945;DHT22;4507;40.232;29.132;2023-08-12T05:26:13;23.20;91.90
8945;DHT22;4507;40.232;29.132;2023-08-12T05:28:42;23.30;91.90
8945;DHT22;4507;40.232;29.132;2023-08-12T05:31:11;23.40;91.70
8945;DHT22;4507;40.232;29.132;2023-08-12T05:33:52;23.50;91.70
8945;DHT22;4507;40.232;29.132;2023-08-12T05:36:38;23.60;91.70
8945;DHT22;4507;40.232;29.132;2023-08-12T05:39:07;23.60;91.60
8945;DHT22;4507;40.232;29.132;2023-08-12T05:41:44;23.70;91.60
8945;DHT22;4507;40.232;29.132;2023-08-12T05:44:14;23.80;91.50
8945;DHT22;4507;40.232;29.132;2023-08-12T05:46:51;23.80;91.40
8945;DHT22;4507;40.232;29.132;2023-08-12T05:49:43;23.90;91.40
8945;DHT22;4507;40.232;29.132;2023-08-12T05:52:12;24.00;91.20
8945;DHT22;4507;40.232;29.132;2023-08-12T05:54:42;24.10;91.00
8945;DHT22;4507;40.232;29.132;2023-08-12T05:57:13;24.20;90.40
8945;DHT22;4507;40.232;29.132;2023-08-12T05:59:42;24.30;90.00
8945;DHT22;4507;40.232;29.132;2023-08-12T06:02:11;24.40;89.70
8945;DHT22;4507;40.232;29.132;2023-08-12T06:04:41;24.40;88.90
8945;DHT22;4507;40.232;29.132;2023-08-12T06:07:10;24.50;88.40
8945;DHT22;4507;40.232;29.132;2023-08-12T06:09:39;24.50;88.30
8945;DHT22;4507;40.232;29.132;2023-08-12T06:12:09;24.70;88.10
8945;DHT22;4507;40.232;29.132;2023-08-12T06:15:07;24.70;88.20
8945;DHT22;4507;40.232;29.132;2023-08-12T06:18:01;24.70;87.60
8945;DHT22;4507;40.232;29.132;2023-08-12T06:20:30;24.80;87.90
8945;DHT22;4507;40.232;29.132;2023-08-12T06:23:00;24.90;87.50
8945;DHT22;4507;40.232;29.132;2023-08-12T06:25:29;24.90;86.50
8945;DHT22;4507;40.232;29.132;2023-08-12T06:27:58;25.00;86.90
8945;DHT22;4507;40.232;29.132;2023-08-12T06:30:30;25.10;87.00
8945;DHT22;4507;40.232;29.132;2023-08-12T06:32:59;25.20;86.30
8945;DHT22;4507;40.232;29.132;2023-08-12T06:35:29;25.20;86.00
8945;DHT22;4507;40.232;29.132;2023-08-12T06:38:16;25.30;85.60
8945;DHT22;4507;40.232;29.132;2023-08-12T06:40:47;25.40;85.30
8945;DHT22;4507;40.232;29.132;2023-08-12T06:43:16;25.50;85.10
8945;DHT22;4507;40.232;29.132;2023-08-12T06:45:47;25.50;84.50
8945;DHT22;4507;40.232;29.132;2023-08-12T06:48:16;25.60;83.30
8945;DHT22;4507;40.232;29.132;2023-08-12T06:50:46;25.70;82.70
8945;DHT22;4507;40.232;29.132;2023-08-12T06:53:15;25.70;82.80
8945;DHT22;4507;40.232;29.132;2023-08-12T06:55:44;25.80;82.80
8945;DHT22;4507;40.232;29.132;2023-08-12T06:58:14;25.90;82.00
8945;DHT22;4507;40.232;29.132;2023-08-12T07:00:43;26.00;81.90
8945;DHT22;4507;40.232;29.132;2023-08-12T07:03:14;26.00;81.20
8945;DHT22;4507;40.232;29.132;2023-08-12T07:05:43;26.00;80.40
8945;DHT22;4507;40.232;29.132;2023-08-12T07:08:12;26.10;80.60
8945;DHT22;4507;40.232;29.132;2023-08-12T07:10:42;26.20;80.20
8945;DHT22;4507;40.232;29.132;2023-08-12T07:13:12;26.20;80.30
8945;DHT22;4507;40.232;29.132;2023-08-12T07:15:41;26.30;79.60
8945;DHT22;4507;40.232;29.132;2023-08-12T07:18:23;26.40;79.60
8945;DHT22;4507;40.232;29.132;2023-08-12T07:21:16;26.50;79.40
8945;DHT22;4507;40.232;29.132;2023-08-12T07:23:45;26.60;78.50
8945;DHT22;4507;40.232;29.132;2023-08-12T07:26:29;26.60;78.10
8945;DHT22;4507;40.232;29.132;2023-08-12T07:28:58;26.70;78.10
8945;DHT22;4507;40.232;29.132;2023-08-12T07:31:27;26.70;77.10
8945;DHT22;4507;40.232;29.132;2023-08-12T07:33:58;26.70;77.30
8945;DHT22;4507;40.232;29.132;2023-08-12T07:36:28;26.70;77.30
8945;DHT22;4507;40.232;29.132;2023-08-12T07:39:10;26.80;76.80
8945;DHT22;4507;40.232;29.132;2023-08-12T07:41:47;26.80;76.40
8945;DHT22;4507;40.232;29.132;2023-08-12T07:44:16;26.80;76.60
8945;DHT22;4507;40.232;29.132;2023-08-12T07:46:56;26.80;76.40
8945;DHT22;4507;40.232;29.132;2023-08-12T07:49:35;26.90;76.00
8945;DHT22;4507;40.232;29.132;2023-08-12T07:52:05;26.90;75.60
8945;DHT22;4507;40.232;29.132;2023-08-12T07:54:35;26.90;75.80
8945;DHT22;4507;40.232;29.132;2023-08-12T07:57:04;26.90;75.70
8945;DHT22;4507;40.232;29.132;2023-08-12T07:59:33;26.90;75.40
8945;DHT22;4507;40.232;29.132;2023-08-12T08:02:07;26.90;75.60
8945;DHT22;4507;40.232;29.132;2023-08-12T08:04:49;26.90;75.90
8945;DHT22;4507;40.232;29.132;2023-08-12T08:07:32;27.00;76.30
8945;DHT22;4507;40.232;29.132;2023-08-12T08:10:11;27.00;76.50
8945;DHT22;4507;40.232;29.132;2023-08-12T08:12:44;27.10;76.50
8945;DHT22;4507;40.232;29.132;2023-08-12T08:15:14;27.20;76.40
8945;DHT22;4507;40.232;29.132;2023-08-12T08:17:44;27.30;76.70
8945;DHT22;4507;40.232;29.132;2023-08-12T08:20:15;27.40;76.20
8945;DHT22;4507;40.232;29.132;2023-08-12T08:22:44;27.50;76.00
8945;DHT22;4507;40.232;29.132;2023-08-12T08:25:14;27.60;75.70
8945;DHT22;4507;40.232;29.132;2023-08-12T08:27:57;27.60;75.10
8945;DHT22;4507;40.232;29.132;2023-08-12T08:30:37;27.70;75.30
8945;DHT22;4507;40.232;29.132;2023-08-12T08:33:17;27.80;75.10
8945;DHT22;4507;40.232;29.132;2023-08-12T08:35:51;27.90;74.80
8945;DHT22;4507;40.232;29.132;2023-08-12T08:38:20;27.90;74.60
8945;DHT22;4507;40.232;29.132;2023-08-12T08:40:51;28.00;74.10
8945;DHT22;4507;40.232;29.132;2023-08-12T08:43:39;28.00;73.60
8945;DHT22;4507;40.232;29.132;2023-08-12T08:46:49;28.00;73.20
8945;DHT22;4507;40.232;29.132;2023-08-12T08:49:28;28.10;73.50
8945;DHT22;4507;40.232;29.132;2023-08-12T08:52:01;28.10;73.80
8945;DHT22;4507;40.232;29.132;2023-08-12T08:54:31;28.20;73.90
8945;DHT22;4507;40.232;29.132;2023-08-12T08:57:01;28.20;73.50
8945;DHT22;4507;40.232;29.132;2023-08-12T08:59:47;28.30;72.80
8945;DHT22;4507;40.232;29.132;2023-08-12T09:02:33;28.30;72.20
8945;DHT22;4507;40.232;29.132;2023-08-12T09:05:05;28.30;72.90
8945;DHT22;4507;40.232;29.132;2023-08-12T09:07:36;28.40;73.30
8945;DHT22;4507;40.232;29.132;2023-08-12T09:10:08;28.50;73.70
8945;DHT22;4507;40.232;29.132;2023-08-12T09:12:42;28.60;72.90
8945;DHT22;4507;40.232;29.132;2023-08-12T09:15:21;28.70;73.30
8945;DHT22;4507;40.232;29.132;2023-08-12T09:18:16;28.80;73.00
8945;DHT22;4507;40.232;29.132;2023-08-12T09:24:09;28.90;71.40
8945;DHT22;4507;40.232;29.132;2023-08-12T09:26:38;29.00;70.70
8945;DHT22;4507;40.232;29.132;2023-08-12T09:29:23;29.00;70.30
8945;DHT22;4507;40.232;29.132;2023-08-12T09:32:19;29.00;70.10
8945;DHT22;4507;40.232;29.132;2023-08-12T09:35:16;29.00;70.50
8945;DHT22;4507;40.232;29.132;2023-08-12T09:37:59;29.00;69.70
8945;DHT22;4507;40.232;29.132;2023-08-12T09:40:41;29.00;70.40
8945;DHT22;4507;40.232;29.132;2023-08-12T09:43:44;29.10;70.00
8945;DHT22;4507;40.232;29.132;2023-08-12T09:46:40;29.20;70.10
8945;DHT22;4507;40.232;29.132;2023-08-12T09:49:10;29.40;70.20
8945;DHT22;4507;40.232;29.132;2023-08-12T09:51:39;29.50;69.70
8945;DHT22;4507;40.232;29.132;2023-08-12T09:54:21;29.60;69.60
8945;DHT22;4507;40.232;29.132;2023-08-12T09:57:15;29.70;69.00
8945;DHT22;4507;40.232;29.132;2023-08-12T10:00:07;29.80;67.90
8945;DHT22;4507;40.232;29.132;2023-08-12T10:03:02;29.90;68.10
8945;DHT22;4507;40.232;29.132;2023-08-12T10:05:32;30.00;67.10
8945;DHT22;4507;40.232;29.132;2023-08-12T10:08:02;30.00;67.20
8945;DHT22;4507;40.232;29.132;2023-08-12T10:10:34;30.00;66.30
8945;DHT22;4507;40.232;29.132;2023-08-12T10:13:05;30.00;66.60
8945;DHT22;4507;40.232;29.132;2023-08-12T10:15:35;30.00;67.00
8945;DHT22;4507;40.232;29.132;2023-08-12T10:18:05;30.00;67.20
8945;DHT22;4507;40.232;29.132;2023-08-12T10:20:39;30.10;66.90
8945;DHT22;4507;40.232;29.132;2023-08-12T10:23:28;30.10;67.10
8945;DHT22;4507;40.232;29.132;2023-08-12T10:26:00;30.10;67.00
8945;DHT22;4507;40.232;29.132;2023-08-12T10:28:32;30.10;67.90
8945;DHT22;4507;40.232;29.132;2023-08-12T10:31:05;30.30;67.60
8945;DHT22;4507;40.232;29.132;2023-08-12T10:33:36;30.30;67.40
8945;DHT22;4507;40.232;29.132;2023-08-12T10:36:06;30.40;66.70
8945;DHT22;4507;40.232;29.132;2023-08-12T10:38:35;30.50;65.90
8945;DHT22;4507;40.232;29.132;2023-08-12T10:41:18;30.50;65.30
8945;DHT22;4507;40.232;29.132;2023-08-12T10:44:09;30.40;65.30
8945;DHT22;4507;40.232;29.132;2023-08-12T10:46:58;30.40;65.70
8945;DHT22;4507;40.232;29.132;2023-08-12T10:49:27;30.50;66.00
8945;DHT22;4507;40.232;29.132;2023-08-12T10:52:26;30.60;65.30
8945;DHT22;4507;40.232;29.132;2023-08-12T10:54:55;30.60;64.10
8945;DHT22;4507;40.232;29.132;2023-08-12T10:57:45;30.70;64.60
8945;DHT22;4507;40.232;29.132;2023-08-12T11:00:17;30.70;63.90
8945;DHT22;4507;40.232;29.132;2023-08-12T11:02:50;30.70;64.00
8945;DHT22;4507;40.232;29.132;2023-08-12T11:05:20;30.60;63.70
8945;DHT22;4507;40.232;29.132;2023-08-12T11:07:57;30.60;63.80
8945;DHT22;4507;40.232;29.132;2023-08-12T11:10:32;30.50;64.50
8945;DHT22;4507;40.232;29.132;2023-08-12T11:13:02;30.50;64.40
8945;DHT22;4507;40.232;29.132;2023-08-12T11:15:52;30.50;64.20
8945;DHT22;4507;40.232;29.132;2023-08-12T11:18:21;30.40;64.80
8945;DHT22;4507;40.232;29.132;2023-08-12T11:20:50;30.50;65.80
8945;DHT22;4507;40.232;29.132;2023-08-12T11:23:21;30.50;65.00
8945;DHT22;4507;40.232;29.132;2023-08-12T11:25:50;30.50;64.40
8945;DHT22;4507;40.232;29.132;2023-08-12T11:28:20;30.50;64.10
8945;DHT22;4507;40.232;29.132;2023-08-12T11:30:50;30.40;64.50
8945;DHT22;4507;40.232;29.132;2023-08-12T11:33:20;30.40;64.40
8945;DHT22;4507;40.232;29.132;2023-08-12T11:35:49;30.30;64.60
8945;DHT22;4507;40.232;29.132;2023-08-12T11:38:19;30.30;65.20
8945;DHT22;4507;40.232;29.132;2023-08-12T11:40:50;30.20;65.30
8945;DHT22;4507;40.232;29.132;2023-08-12T11:43:21;30.20;65.20
8945;DHT22;4507;40.232;29.132;2023-08-12T11:45:55;30.10;65.60
8945;DHT22;4507;40.232;29.132;2023-08-12T11:48:25;30.10;65.50
8945;DHT22;4507;40.232;29.132;2023-08-12T11:50:55;30.00;65.80
8945;DHT22;4507;40.232;29.132;2023-08-12T11:53:27;30.00;66.90
8945;DHT22;4507;40.232;29.132;2023-08-12T11:55:57;30.00;66.80
8945;DHT22;4507;40.232;29.132;2023-08-12T11:58:26;29.90;66.40
8945;DHT22;4507;40.232;29.132;2023-08-12T12:01:21;29.80;66.10
8945;DHT22;4507;40.232;29.132;2023-08-12T12:03:51;29.80;66.60
8945;DHT22;4507;40.232;29.132;2023-08-12T12:06:29;29.70;66.40
8945;DHT22;4507;40.232;29.132;2023-08-12T12:09:03;29.70;66.70
8945;DHT22;4507;40.232;29.132;2023-08-12T12:11:33;29.70;67.00
8945;DHT22;4507;40.232;29.132;2023-08-12T12:14:08;29.70;67.20
8945;DHT22;4507;40.232;29.132;2023-08-12T12:16:40;29.70;67.80
8945;DHT22;4507;40.232;29.132;2023-08-12T12:19:13;29.70;67.80
8945;DHT22;4507;40.232;29.132;2023-08-12T12:21:46;29.70;68.10
8945;DHT22;4507;40.232;29.132;2023-08-12T12:24:44;29.80;67.20
8945;DHT22;4507;40.232;29.132;2023-08-12T12:27:14;29.80;66.50
8945;DHT22;4507;40.232;29.132;2023-08-12T12:29:43;29.90;66.50
8945;DHT22;4507;40.232;29.132;2023-08-12T12:32:14;29.90;66.50
8945;DHT22;4507;40.232;29.132;2023-08-12T12:34:43;30.00;65.80
8945;DHT22;4507;40.232;29.132;2023-08-12T12:37:12;30.00;65.80
8945;DHT22;4507;40.232;29.132;2023-08-12T12:39:41;30.00;66.50
8945;DHT22;4507;40.232;29.132;2023-08-12T12:42:11;30.00;66.10
8945;DHT22;4507;40.232;29.132;2023-08-12T12:44:41;30.00;66.20
8945;DHT22;4507;40.232;29.132;2023-08-12T12:47:10;30.00;66.70
8945;DHT22;4507;40.232;29.132;2023-08-12T12:50:02;30.00;65.70
8945;DHT22;4507;40.232;29.132;2023-08-12T12:52:31;30.00;65.10
8945;DHT22;4507;40.232;29.132;2023-08-12T12:55:00;30.10;65.40
8945;DHT22;4507;40.232;29.132;2023-08-12T12:57:31;30.10;67.00
8945;DHT22;4507;40.232;29.132;2023-08-12T13:00:00;30.10;66.50
8945;DHT22;4507;40.232;29.132;2023-08-12T13:02:31;30.20;66.70
8945;DHT22;4507;40.232;29.132;2023-08-12T13:05:02;30.20;66.40
8945;DHT22;4507;40.232;29.132;2023-08-12T13:07:32;30.30;66.50
8945;DHT22;4507;40.232;29.132;2023-08-12T13:10:01;30.20;65.50
8945;DHT22;4507;40.232;29.132;2023-08-12T13:12:30;30.20;65.40
8945;DHT22;4507;40.232;29.132;2023-08-12T13:14:59;30.10;65.80
8945;DHT22;4507;40.232;29.132;2023-08-12T13:17:29;30.10;66.40
8945;DHT22;4507;40.232;29.132;2023-08-12T13:19:58;30.00;66.80
8945;DHT22;4507;40.232;29.132;2023-08-12T13:22:28;30.00;67.30
8945;DHT22;4507;40.232;29.132;2023-08-12T13:24:58;29.90;67.60
8945;DHT22;4507;40.232;29.132;2023-08-12T13:27:28;29.90;67.30
8945;DHT22;4507;40.232;29.132;2023-08-12T13:30:06;29.80;67.50
8945;DHT22;4507;40.232;29.132;2023-08-12T13:32:49;29.80;68.00
8945;DHT22;4507;40.232;29.132;2023-08-12T13:35:36;29.80;67.80
8945;DHT22;4507;40.232;29.132;2023-08-12T13:38:07;29.80;67.10
8945;DHT22;4507;40.232;29.132;2023-08-12T13:40:36;29.70;67.40
8945;DHT22;4507;40.232;29.132;2023-08-12T13:43:05;29.70;67.00
8945;DHT22;4507;40.232;29.132;2023-08-12T13:45:35;29.70;67.10
8945;DHT22;4507;40.232;29.132;2023-08-12T13:48:04;29.70;67.30
8945;DHT22;4507;40.232;29.132;2023-08-12T13:50:37;29.70;67.40
8945;DHT22;4507;40.232;29.132;2023-08-12T13:53:26;29.80;67.00
8945;DHT22;4507;40.232;29.132;2023-08-12T13:56:04;29.80;67.10
8945;DHT22;4507;40.232;29.132;2023-08-12T13:59:08;29.80;66.90
8945;DHT22;4507;40.232;29.132;2023-08-12T14:01:37;29.80;66.60
8945;DHT22;4507;40.232;29.132;2023-08-12T14:04:10;29.90;66.50
8945;DHT22;4507;40.232;29.132;2023-08-12T14:06:39;29.90;67.20
8945;DHT22;4507;40.232;29.132;2023-08-12T14:09:10;30.00;66.60
8945;DHT22;4507;40.232;29.132;2023-08-12T14:11:41;30.00;66.90
8945;DHT22;4507;40.232;29.132;2023-08-12T14:14:10;30.00;66.70
8945;DHT22;4507;40.232;29.132;2023-08-12T14:16:39;30.00;66.40
8945;DHT22;4507;40.232;29.132;2023-08-12T14:19:09;30.00;66.60
8945;DHT22;4507;40.232;29.132;2023-08-12T14:21:38;30.00;66.60
8945;DHT22;4507;40.232;29.132;2023-08-12T14:24:09;29.90;66.30
8945;DHT22;4507;40.232;29.132;2023-08-12T14:26:39;29.90;66.90
8945;DHT22;4507;40.232;29.132;2023-08-12T14:29:08;29.80;66.20
8945;DHT22;4507;40.232;29.132;2023-08-12T14:31:37;29.80;66.50
8945;DHT22;4507;40.232;29.132;2023-08-12T14:34:06;29.80;66.60
8945;DHT22;4507;40.232;29.132;2023-08-12T14:36:36;29.80;66.20
8945;DHT22;4507;40.232;29.132;2023-08-12T14:39:05;29.80;66.60
8945;DHT22;4507;40.232;29.132;2023-08-12T14:41:36;29.80;66.90
8945;DHT22;4507;40.232;29.132;2023-08-12T14:44:06;29.70;67.00
8945;DHT22;4507;40.232;29.132;2023-08-12T14:46:35;29.70;66.70
8945;DHT22;4507;40.232;29.132;2023-08-12T14:49:04;29.70;66.70
8945;DHT22;4507;40.232;29.132;2023-08-12T14:51:33;29.60;66.20
8945;DHT22;4507;40.232;29.132;2023-08-12T14:54:03;29.60;66.70
8945;DHT22;4507;40.232;29.132;2023-08-12T14:56:52;29.60;66.80
8945;DHT22;4507;40.232;29.132;2023-08-12T14:59:22;29.60;67.20
8945;DHT22;4507;40.232;29.132;2023-08-12T15:01:52;29.60;67.60
8945;DHT22;4507;40.232;29.132;2023-08-12T15:04:25;29.60;66.90
8945;DHT22;4507;40.232;29.132;2023-08-12T15:06:54;29.60;66.50
8945;DHT22;4507;40.232;29.132;2023-08-12T15:09:23;29.60;66.50
8945;DHT22;4507;40.232;29.132;2023-08-12T15:11:54;29.50;66.40
8945;DHT22;4507;40.232;29.132;2023-08-12T15:14:23;29.50;66.50
8945;DHT22;4507;40.232;29.132;2023-08-12T15:16:53;29.40;66.70
8945;DHT22;4507;40.232;29.132;2023-08-12T15:19:22;29.30;67.10
8945;DHT22;4507;40.232;29.132;2023-08-12T15:21:51;29.30;67.40
8945;DHT22;4507;40.232;29.132;2023-08-12T15:24:22;29.20;67.40
8945;DHT22;4507;40.232;29.132;2023-08-12T15:26:51;29.10;67.40
8945;DHT22;4507;40.232;29.132;2023-08-12T15:29:22;29.10;67.40
8945;DHT22;4507;40.232;29.132;2023-08-12T15:31:51;29.00;67.60
8945;DHT22;4507;40.232;29.132;2023-08-12T15:34:20;29.00;68.30
8945;DHT22;4507;40.232;29.132;2023-08-12T15:36:50;29.00;68.00
8945;DHT22;4507;40.232;29.132;2023-08-12T15:39:20;28.90;68.40
8945;DHT22;4507;40.232;29.132;2023-08-12T15:41:49;28.90;69.10
8945;DHT22;4507;40.232;29.132;2023-08-12T15:44:20;28.90;69.50
8945;DHT22;4507;40.232;29.132;2023-08-12T15:46:50;28.90;69.50
8945;DHT22;4507;40.232;29.132;2023-08-12T15:49:19;28.80;69.30
8945;DHT22;4507;40.232;29.132;2023-08-12T15:51:48;28.80;69.30
8945;DHT22;4507;40.232;29.132;2023-08-12T15:54:17;28.80;69.10
8945;DHT22;4507;40.232;29.132;2023-08-12T15:56:46;28.80;68.50
8945;DHT22;4507;40.232;29.132;2023-08-12T15:59:16;28.70;68.10
8945;DHT22;4507;40.232;29.132;2023-08-12T16:01:49;28.70;68.10
8945;DHT22;4507;40.232;29.132;2023-08-12T16:04:18;28.70;68.00
8945;DHT22;4507;40.232;29.132;2023-08-12T16:06:47;28.60;67.80
8945;DHT22;4507;40.232;29.132;2023-08-12T16:09:17;28.50;67.50
8945;DHT22;4507;40.232;29.132;2023-08-12T16:11:46;28.40;67.50
8945;DHT22;4507;40.232;29.132;2023-08-12T16:14:16;28.40;67.50
8945;DHT22;4507;40.232;29.132;2023-08-12T16:16:45;28.40;67.70
8945;DHT22;4507;40.232;29.132;2023-08-12T16:19:16;28.30;67.60
8945;DHT22;4507;40.232;29.132;2023-08-12T16:21:45;28.30;67.90
8945;DHT22;4507;40.232;29.132;2023-08-12T16:24:14;28.20;67.80
8945;DHT22;4507;40.232;29.132;2023-08-12T16:26:44;28.20;67.90
8945;DHT22;4507;40.232;29.132;2023-08-12T16:29:21;28.20;67.90
8945;DHT22;4507;40.232;29.132;2023-08-12T16:32:02;28.10;67.70